Time;durP1;ratioP1;P1;durP2;ratioP2;P2;SDS_P1;SDS_P2;PMS_P1;PMS_P2;Temp;Humidity;BMP_temperature;BMP_pressure;BME280_temperature;BME280_humidity;BME280_pressure;Samples;Min_cycle;Max_cycle;Signal;HPM_P1;HPM_P2
2023/05/21 00:00:14;;;;;;;6.85;4.43;;;;;;;11.99;87.74;101827.06;5055977;28;20031;-83
2023/05/21 00:02:39;;;;;;;6.15;4.25;;;;;;;12.04;88.16;101849.22;5055439;28;20530;-83
2023/05/21 00:05:05;;;;;;;8.48;4.53;;;;;;;11.47;88.72;101768.50;5055928;28;20024;-85
2023/05/21 00:07:32;;;;;;;6.85;4.38;;;;;;;11.88;88.58;101832.81;5055700;28;20044;-81
2023/05/21 00:09:57;;;;;;;7.20;4.90;;;;;;;11.78;89.32;101819.50;5055411;28;20029;-84
2023/05/21 00:12:22;;;;;;;8.10;4.95;;;;;;;11.90;89.66;101843.13;5055661;28;20029;-84
2023/05/21 00:14:48;;;;;;;6.13;4.70;;;;;;;11.75;89.97;101834.34;5055481;28;20032;-85
2023/05/21 00:17:14;;;;;;;7.53;4.65;;;;;;;11.36;90.42;101770.81;5055350;28;20575;-84
2023/05/21 00:19:41;;;;;;;7.38;4.65;;;;;;;11.72;90.27;101831.94;5055159;28;20021;-83
2023/05/21 00:22:07;;;;;;;7.88;4.53;;;;;;;11.33;90.40;101770.16;5054276;28;20104;-85
2023/05/21 00:24:32;;;;;;;7.68;5.40;;;;;;;11.69;90.12;101819.97;5055466;28;20041;-85
2023/05/21 00:26:57;;;;;;;6.38;4.97;;;;;;;11.67;90.52;101816.63;5054921;28;20384;-84
2023/05/21 00:29:23;;;;;;;7.00;4.75;;;;;;;11.72;90.83;101825.00;5053947;28;20029;-84
2023/05/21 00:31:51;;;;;;;6.30;4.68;;;;;;;11.42;91.04;101788.63;5055342;28;20036;-85
2023/05/21 00:34:19;;;;;;;7.18;4.65;;;;;;;11.44;91.39;101788.53;5055141;28;20078;-85
2023/05/21 00:36:45;;;;;;;10.13;6.60;;;;;;;11.57;91.31;101809.44;5055031;28;20029;-85
2023/05/21 00:39:12;;;;;;;7.10;5.03;;;;;;;11.49;91.85;101795.13;5055334;28;20067;-84
2023/05/21 00:41:39;;;;;;;10.52;5.57;;;;;;;11.58;91.80;101805.91;5055075;28;20021;-85
2023/05/21 00:44:05;;;;;;;9.32;5.80;;;;;;;11.65;91.88;101817.63;5054994;28;20036;-83
2023/05/21 00:46:34;;;;;;;8.38;5.47;;;;;;;11.36;91.83;101764.81;5055018;28;20029;-84
2023/05/21 00:48:59;;;;;;;8.25;5.40;;;;;;;11.67;91.86;101816.63;5054636;28;20029;-85
2023/05/21 00:51:28;;;;;;;8.07;5.28;;;;;;;11.31;92.13;101764.22;5054582;28;20017;-84
2023/05/21 00:53:54;;;;;;;8.82;5.68;;;;;;;11.43;92.34;101789.44;5054707;28;20044;-85
2023/05/21 00:56:21;;;;;;;7.00;5.60;;;;;;;10.91;92.52;101709.34;5054404;28;20074;-85
2023/05/21 00:58:47;;;;;;;8.35;5.57;;;;;;;11.22;92.89;101759.53;5054669;28;20404;-84
2023/05/21 01:01:14;;;;;;;9.15;5.40;;;;;;;11.63;92.80;101820.31;5054699;28;20021;-82
2023/05/21 01:03:41;;;;;;;8.18;5.47;;;;;;;11.55;92.74;101806.09;5054590;28;20110;-81
2023/05/21 01:06:08;;;;;;;7.38;5.03;;;;;;;11.57;93.11;101815.44;5054494;28;20039;-85
2023/05/21 01:08:36;;;;;;;8.02;5.40;;;;;;;11.34;93.83;101784.75;5054546;28;20029;-84
2023/05/21 01:11:03;;;;;;;7.50;5.57;;;;;;;11.17;93.81;101754.56;5054519;28;20052;-83
2023/05/21 01:13:30;;;;;;;8.10;5.68;;;;;;;11.46;94.22;101815.16;5054515;28;20033;-84
2023/05/21 01:16:02;;;;;;;9.07;5.78;;;;;;;11.44;94.47;101815.22;5054496;28;20055;-85
2023/05/21 01:18:28;;;;;;;8.68;5.10;;;;;;;11.44;94.04;101814.41;5054302;28;20025;-83
2023/05/21 01:20:54;;;;;;;8.07;5.53;;;;;;;11.32;94.43;101792.59;5054385;28;20029;-83
2023/05/21 01:23:28;;;;;;;7.88;5.40;;;;;;;11.41;94.76;101812.81;5054269;28;20473;-84
2023/05/21 01:25:53;;;;;;;7.88;5.68;;;;;;;11.41;95.10;101811.97;5052797;28;20464;-85
2023/05/21 01:28:19;;;;;;;7.93;5.85;;;;;;;11.44;95.06;101804.06;5054171;28;20051;-84
2023/05/21 01:30:47;;;;;;;8.70;5.88;;;;;;;11.51;94.69;101810.59;5054299;28;20029;-84
2023/05/21 01:33:28;;;;;;;8.27;5.60;;;;;;;11.31;94.40;101766.81;5052706;28;20032;-84
2023/05/21 01:35:57;;;;;;;9.90;5.60;;;;;;;11.60;94.15;101804.94;5053901;28;20532;-85
2023/05/21 01:38:47;;;;;;;7.70;5.10;;;;;;;11.18;93.84;101736.38;5053906;28;20024;-84
2023/05/21 01:41:16;;;;;;;7.05;5.57;;;;;;;11.68;94.09;101805.38;5054052;28;20032;-84
2023/05/21 01:43:45;;;;;;;7.13;5.35;;;;;;;11.75;94.14;101800.72;5053763;28;20076;-86
2023/05/21 01:46:15;;;;;;;7.35;5.18;;;;;;;11.82;93.55;101796.09;5054154;28;20103;-83
2023/05/21 01:48:42;;;;;;;7.90;5.07;;;;;;;11.87;93.88;101801.84;5053568;28;20017;-83
2023/05/21 01:51:08;;;;;;;6.85;5.25;;;;;;;11.76;93.71;101767.00;5053632;28;20380;-83
2023/05/21 01:53:34;;;;;;;8.98;4.97;;;;;;;11.84;92.99;101776.97;5053437;28;20021;-85
2023/05/21 01:56:06;;;;;;;7.50;5.28;;;;;;;12.04;92.51;101800.03;5053345;28;20040;-86
2023/05/21 01:58:31;;;;;;;9.45;5.50;;;;;;;11.86;92.47;101754.44;5052067;28;20361;-82
2023/05/21 02:00:57;;;;;;;8.10;5.15;;;;;;;11.93;92.30;101771.31;5053566;28;20021;-84
2023/05/21 02:03:26;;;;;;;6.40;4.78;;;;;;;12.12;92.93;101799.63;5053490;28;20469;-80
2023/05/21 02:05:51;;;;;;;7.75;5.82;;;;;;;11.55;92.52;101685.34;5053317;28;20075;-85
2023/05/21 02:08:18;;;;;;;7.85;5.18;;;;;;;11.87;92.34;101743.16;5053121;28;20021;-84
2023/05/21 02:10:46;;;;;;;7.97;5.40;;;;;;;11.92;92.81;101738.59;5053094;28;20029;-82
2023/05/21 02:13:12;;;;;;;9.32;5.88;;;;;;;12.29;92.25;101777.97;5052594;28;20427;-82
2023/05/21 02:15:37;;;;;;;7.68;5.25;;;;;;;12.31;91.42;101778.75;5053281;28;20029;-83
2023/05/21 02:18:03;;;;;;;8.32;5.63;;;;;;;12.40;91.72;101782.59;5053234;28;20033;-85
2023/05/21 02:20:29;;;;;;;8.45;5.35;;;;;;;11.43;91.70;101611.84;5053200;28;20071;-83
2023/05/21 02:22:57;;;;;;;7.60;5.72;;;;;;;12.45;91.80;101778.81;5051584;28;20123;-81
2023/05/21 02:25:25;;;;;;;9.45;5.78;;;;;;;12.47;91.52;101784.75;5051947;28;20081;-85
2023/05/21 02:27:52;;;;;;;8.82;5.95;;;;;;;12.19;91.85;101741.44;5053041;28;20480;-86
2023/05/21 02:30:18;;;;;;;8.02;5.45;;;;;;;12.49;91.73;101782.09;5051855;28;20068;-85
2023/05/21 02:32:47;;;;;;;9.50;6.03;;;;;;;12.29;91.07;101745.19;5051696;28;20079;-86
2023/05/21 02:35:13;;;;;;;8.40;5.25;;;;;;;12.57;91.24;101777.28;5052790;28;20029;-86
2023/05/21 02:37:39;;;;;;;7.18;5.32;;;;;;;12.60;91.08;101783.16;5052934;28;20032;-85
2023/05/21 02:40:06;;;;;;;8.07;5.57;;;;;;;12.59;90.74;101778.91;5052849;28;20033;-86
2023/05/21 02:42:32;;;;;;;7.45;5.32;;;;;;;12.66;90.69;101783.72;5052796;28;21104;-86
2023/05/21 02:44:57;;;;;;;8.07;5.25;;;;;;;12.64;91.55;101782.06;5052536;28;20065;-85
2023/05/21 02:47:23;;;;;;;7.55;5.57;;;;;;;12.34;91.19;101724.19;5052968;28;20095;-86
2023/05/21 02:49:51;;;;;;;9.48;5.55;;;;;;;12.17;90.91;101688.88;5053482;28;20032;-81
2023/05/21 02:52:18;;;;;;;7.75;5.55;;;;;;;12.11;90.93;101681.47;5052543;28;20040;-80
2023/05/21 02:54:48;;;;;;;8.23;5.55;;;;;;;12.68;91.52;101782.69;5052505;28;20422;-82
2023/05/21 02:57:22;;;;;;;10.07;6.10;;;;;;;12.25;90.98;101703.97;5052428;28;20045;-82
2023/05/21 02:59:54;;;;;;;8.85;5.63;;;;;;;12.38;90.73;101715.31;5052674;28;20031;-81
2023/05/21 03:02:19;;;;;;;8.27;6.30;;;;;;;12.54;90.67;101739.44;5052424;28;20029;-80
2023/05/21 03:04:59;;;;;;;8.05;5.88;;;;;;;11.68;90.85;101597.53;5052510;28;20036;-84
2023/05/21 03:07:24;;;;;;;7.72;5.80;;;;;;;12.74;91.12;101758.19;5052454;28;20036;-85
2023/05/21 03:10:02;;;;;;;8.85;5.60;;;;;;;12.02;90.95;101640.53;5052614;28;20024;-85
2023/05/21 03:12:27;;;;;;;8.77;6.20;;;;;;;12.10;91.28;101643.53;5052875;28;20240;-85
2023/05/21 03:15:02;;;;;;;8.60;5.70;;;;;;;12.55;91.03;101722.13;5052465;28;20473;-85
2023/05/21 03:17:27;;;;;;;8.25;6.18;;;;;;;12.58;90.93;101715.00;5052541;28;20017;-85
2023/05/21 03:19:55;;;;;;;9.90;5.50;;;;;;;12.59;90.94;101728.84;5030331;28;20037;-86
2023/05/21 03:22:30;;;;;;;9.10;5.38;;;;;;;11.76;90.80;101577.25;5030171;28;20038;-85
2023/05/21 03:25:04;;;;;;;8.13;5.60;;;;;;;11.78;90.83;101581.41;5032030;28;20033;-83
2023/05/21 03:27:30;;;;;;;9.35;5.65;;;;;;;12.84;91.22;101748.97;5034452;28;20041;-85
2023/05/21 03:29:58;;;;;;;8.55;5.88;;;;;;;12.15;90.88;101628.56;5034399;28;20404;-85
2023/05/21 03:32:32;;;;;;;7.80;5.40;;;;;;;11.66;90.84;101553.66;5034493;28;20030;-86
2023/05/21 03:34:58;;;;;;;8.95;5.43;;;;;;;12.02;91.00;101615.50;5017936;28;20596;-86
2023/05/21 03:37:23;;;;;;;8.20;5.97;;;;;;;12.81;91.33;101747.41;5034247;28;20049;-86
2023/05/21 03:39:57;;;;;;;10.63;6.03;;;;;;;12.81;90.85;101743.97;5034042;28;20049;-86
2023/05/21 03:42:31;;;;;;;7.60;5.93;;;;;;;12.79;91.15;101749.25;5034269;28;20021;-85
2023/05/21 03:44:56;;;;;;;9.68;6.10;;;;;;;12.43;91.17;101683.97;5033599;28;20037;-86
2023/05/21 03:47:22;;;;;;;9.00;6.03;;;;;;;12.76;91.43;101746.81;5033972;28;20128;-85
2023/05/21 03:49:50;;;;;;;9.85;6.25;;;;;;;12.72;91.89;101752.28;5034925;28;20076;-85
2023/05/21 03:52:16;;;;;;;8.10;5.90;;;;;;;12.69;92.04;101758.47;5056077;28;20093;-84
2023/05/21 03:54:41;;;;;;;13.23;6.68;;;;;;;12.51;91.96;101731.03;5056056;28;20033;-85
2023/05/21 03:57:06;;;;;;;8.88;5.90;;;;;;;12.66;92.21;101753.44;5055683;28;20041;-83
2023/05/21 03:59:32;;;;;;;9.88;6.88;;;;;;;12.38;92.41;101707.53;5055798;28;20029;-86
2023/05/21 04:01:57;;;;;;;11.98;6.63;;;;;;;12.44;92.46;101720.16;5055870;28;20392;-84
2023/05/21 04:04:23;;;;;;;7.93;5.70;;;;;;;12.33;92.83;101705.22;5055689;28;20029;-84
2023/05/21 04:06:50;;;;;;;9.88;6.43;;;;;;;12.59;92.85;101746.97;5054061;28;20037;-84
2023/05/21 04:09:15;;;;;;;10.00;6.47;;;;;;;12.34;93.17;101713.81;5055711;28;20017;-85
2023/05/21 04:11:41;;;;;;;8.40;6.35;;;;;;;12.28;93.82;101711.56;5055855;28;20112;-85
2023/05/21 04:14:06;;;;;;;9.98;5.97;;;;;;;12.51;93.61;101751.75;5055484;28;20053;-85
2023/05/21 04:16:33;;;;;;;9.85;6.38;;;;;;;12.28;93.75;101712.41;5055640;28;20029;-84
2023/05/21 04:18:58;;;;;;;9.43;6.68;;;;;;;12.48;93.62;101754.50;5055456;28;20029;-85
2023/05/21 04:21:24;;;;;;;12.13;6.70;;;;;;;11.82;93.86;101653.75;5055459;28;20488;-84
2023/05/21 04:23:52;;;;;;;8.95;6.60;;;;;;;12.45;94.20;101755.50;5055464;28;20086;-84
2023/05/21 04:26:18;;;;;;;9.98;6.78;;;;;;;12.37;94.44;101746.47;5054639;28;20373;-85
2023/05/21 04:28:44;;;;;;;8.63;6.32;;;;;;;12.42;94.47;101745.31;5055401;28;20074;-82
2023/05/21 04:31:11;;;;;;;10.52;6.75;;;;;;;12.46;94.59;101756.34;5055266;28;20565;-82
2023/05/21 04:33:37;;;;;;;10.10;7.35;;;;;;;12.48;94.33;101749.31;5055082;28;20037;-84
2023/05/21 04:36:11;;;;;;;9.30;6.97;;;;;;;12.48;94.37;101759.66;5054840;28;20381;-83
2023/05/21 04:38:38;;;;;;;9.20;6.72;;;;;;;12.49;94.33;101753.59;5053923;28;20037;-85
2023/05/21 04:41:05;;;;;;;11.70;7.47;;;;;;;12.37;94.09;101723.19;5054942;28;20021;-84
2023/05/21 04:43:31;;;;;;;11.10;7.18;;;;;;;12.58;94.36;101759.06;5055281;28;20525;-82
2023/05/21 04:45:56;;;;;;;11.13;7.40;;;;;;;12.41;94.39;101722.94;5054636;28;20037;-84
2023/05/21 04:48:23;;;;;;;10.23;7.45;;;;;;;12.15;93.81;101675.19;5055393;28;20056;-84
2023/05/21 04:50:49;;;;;;;9.90;7.10;;;;;;;12.51;93.57;101721.50;5055202;28;20380;-82
2023/05/21 04:53:15;;;;;;;10.23;7.47;;;;;;;12.49;93.89;101706.97;5054905;28;20450;-83
2023/05/21 04:55:40;;;;;;;8.63;6.93;;;;;;;12.82;93.62;101759.44;5053482;28;20079;-84
2023/05/21 04:58:06;;;;;;;7.85;6.25;;;;;;;12.36;93.57;101683.50;5054998;28;20021;-83
2023/05/21 05:00:40;;;;;;;9.98;6.80;;;;;;;12.86;92.99;101765.28;5055021;28;20037;-84
2023/05/21 05:03:07;;;;;;;9.32;6.85;;;;;;;12.86;93.00;101768.69;5054919;28;20025;-84
2023/05/21 05:05:33;;;;;;;8.68;6.90;;;;;;;12.71;93.34;101738.50;5055144;28;20361;-84
2023/05/21 05:07:59;;;;;;;11.43;6.93;;;;;;;12.90;93.06;101761.59;5054531;28;20024;-83
2023/05/21 05:10:24;;;;;;;10.98;7.30;;;;;;;12.97;93.05;101767.25;5054779;28;20037;-84
2023/05/21 05:12:49;;;;;;;9.95;7.07;;;;;;;13.02;92.46;101763.47;5054584;28;20120;-84
2023/05/21 05:15:18;;;;;;;9.70;7.18;;;;;;;13.03;92.84;101759.94;5054622;28;20025;-84
2023/05/21 05:17:43;;;;;;;9.35;7.20;;;;;;;12.91;92.70;101739.94;5054439;28;20052;-85
2023/05/21 05:20:17;;;;;;;11.95;7.53;;;;;;;13.10;92.24;101758.69;5054810;28;20021;-85
2023/05/21 05:22:42;;;;;;;9.93;7.53;;;;;;;12.56;92.62;101669.41;5054475;28;20025;-83
2023/05/21 05:25:08;;;;;;;10.15;7.20;;;;;;;13.07;93.16;101756.25;5052743;28;20483;-83
2023/05/21 05:27:39;;;;;;;10.20;7.85;;;;;;;12.64;93.03;101685.34;5054419;28;20036;-84
2023/05/21 05:30:05;;;;;;;11.30;7.65;;;;;;;12.66;92.19;101678.31;5051558;28;20048;-84
2023/05/21 05:32:33;;;;;;;11.10;8.02;;;;;;;13.12;92.70;101758.59;5052929;28;20496;-85
2023/05/21 05:34:59;;;;;;;9.85;7.63;;;;;;;13.14;92.95;101751.53;5054262;28;20029;-83
2023/05/21 05:37:24;;;;;;;12.88;7.85;;;;;;;12.76;92.26;101687.22;5053774;28;20117;-83
2023/05/21 05:39:50;;;;;;;9.57;7.88;;;;;;;12.54;92.23;101629.78;5052931;28;20074;-84
2023/05/21 05:42:15;;;;;;;11.52;7.80;;;;;;;13.17;91.71;101725.41;5054230;28;20049;-84
2023/05/21 05:44:41;;;;;;;11.13;8.00;;;;;;;13.44;92.23;101754.94;5053605;28;20021;-83
2023/05/21 05:47:09;;;;;;;9.38;7.70;;;;;;;13.54;91.67;101760.41;5052856;28;20040;-83
2023/05/21 05:49:35;;;;;;;10.80;7.35;;;;;;;13.41;91.05;101713.63;5054187;28;20040;-83
2023/05/21 05:52:00;;;;;;;10.45;7.60;;;;;;;13.71;90.57;101755.03;5054076;28;20392;-84
2023/05/21 05:54:26;;;;;;;9.82;7.55;;;;;;;13.64;90.89;101726.94;5052520;28;20494;-82
2023/05/21 05:56:51;;;;;;;9.75;7.97;;;;;;;13.86;90.33;101750.63;5053589;28;20056;-83
2023/05/21 05:59:17;;;;;;;9.80;7.75;;;;;;;14.02;89.17;101755.72;5053639;28;20095;-83
2023/05/21 06:01:54;;;;;;;10.55;7.57;;;;;;;13.60;88.70;101684.78;5053858;28;20025;-85
2023/05/21 06:04:20;;;;;;;9.13;6.97;;;;;;;14.15;88.64;101754.00;5053484;28;20071;-82
2023/05/21 06:06:46;;;;;;;10.38;7.18;;;;;;;13.86;88.37;101688.31;5053209;28;20114;-81
2023/05/21 06:09:11;;;;;;;12.60;8.20;;;;;;;14.25;87.42;101734.31;5053305;28;20032;-85
2023/05/21 06:11:40;;;;;;;10.30;7.95;;;;;;;14.47;87.58;101752.00;5053417;28;20060;-83
2023/05/21 06:14:08;;;;;;;10.13;7.72;;;;;;;14.69;86.49;101755.81;5053413;28;20042;-82
2023/05/21 06:16:33;;;;;;;9.00;7.07;;;;;;;14.74;85.92;101738.94;5053269;28;20071;-83
2023/05/21 06:18:59;;;;;;;9.85;7.57;;;;;;;15.09;85.57;101767.84;5053595;28;20100;-81
2023/05/21 06:21:27;;;;;;;10.27;7.15;;;;;;;15.30;84.53;101762.13;5053119;28;20040;-83
2023/05/21 06:23:53;;;;;;;10.32;7.50;;;;;;;14.71;82.93;101635.16;5051409;28;20033;-83
2023/05/21 06:26:30;;;;;;;9.73;7.15;;;;;;;15.67;83.02;101758.69;5053149;28;20047;-83
2023/05/21 06:31:26;;;;;;;10.02;7.18;;;;;;;15.54;79.62;101578.22;5051405;28;20144;-83
2023/05/21 06:33:52;;;;;;;9.63;7.03;;;;;;;16.06;76.30;101587.47;5052838;28;20413;-83
2023/05/21 06:36:17;;;;;;;9.55;7.10;;;;;;;16.59;74.41;101612.09;5095806;22;20042;-84
2023/05/21 06:38:42;;;;;;;9.43;7.03;;;;;;;17.09;73.41;101703.16;5031275;28;20026;-81
2023/05/21 06:41:14;;;;;;;9.18;6.88;;;;;;;16.79;72.41;101597.59;5033735;28;20026;-83
2023/05/21 06:43:46;;;;;;;10.05;7.07;;;;;;;17.33;70.83;101627.34;5031756;28;20044;-83
2023/05/21 06:46:20;;;;;;;9.63;7.10;;;;;;;18.36;70.17;101751.47;5032963;28;20095;-81
2023/05/21 06:49:01;;;;;;;8.30;6.72;;;;;;;17.60;69.85;101591.22;5032916;28;20032;-81
2023/05/21 06:51:26;;;;;;;9.63;7.05;;;;;;;18.40;67.67;101679.66;5031499;28;20037;-82
2023/05/21 06:53:52;;;;;;;8.75;6.63;;;;;;;18.79;66.42;101727.06;5032377;28;20029;-79
2023/05/21 06:56:17;;;;;;;8.18;6.30;;;;;;;19.41;65.22;101739.22;5032793;28;20171;-83
2023/05/21 06:58:43;;;;;;;9.05;6.30;;;;;;;19.45;62.56;101730.97;5032512;28;20033;-85
2023/05/21 07:01:08;;;;;;;10.88;7.22;;;;;;;19.03;63.65;101679.66;5031609;28;20037;-83
2023/05/21 07:03:37;;;;;;;9.82;7.10;;;;;;;19.15;65.78;101752.75;5032216;28;20049;-85
2023/05/21 07:06:11;;;;;;;10.18;7.00;;;;;;;18.96;65.61;101747.38;5032881;28;20017;-86
2023/05/21 07:08:57;;;;;;;8.85;6.70;;;;;;;18.29;66.60;101709.31;5032595;28;20428;-83
2023/05/21 07:11:27;;;;;;;9.52;6.88;;;;;;;18.61;67.23;101734.59;5031980;28;20047;-81
2023/05/21 07:13:57;;;;;;;10.20;6.80;;;;;;;18.32;66.08;101622.75;5032331;28;20112;-85
2023/05/21 07:16:22;;;;;;;10.65;7.28;;;;;;;18.90;65.85;101659.75;5031191;28;20472;-83
2023/05/21 07:18:54;;;;;;;11.23;7.38;;;;;;;19.12;63.75;101642.22;5032753;28;20014;-86
2023/05/21 07:21:19;;;;;;;;;;;;;;;20.19;64.83;101728.00;5033052;28;20113;-84
2023/05/21 07:23:44;;;;;;;9.75;7.25;;;;;;;20.16;61.27;101727.44;5032423;28;19952;-82
2023/05/21 07:26:10;;;;;;;9.00;6.88;;;;;;;20.13;61.71;101736.41;5032282;28;20088;-85
2023/05/21 07:28:44;;;;;;;10.25;7.38;;;;;;;20.16;63.25;101725.66;5032250;28;20033;-85
2023/05/21 07:31:11;;;;;;;8.85;7.20;;;;;;;19.53;61.76;101643.84;5032500;28;20052;-83
2023/05/21 07:33:37;;;;;;;10.52;7.82;;;;;;;20.11;62.16;101733.09;5032552;28;20028;-85
2023/05/21 07:36:04;;;;;;;11.23;7.85;;;;;;;19.92;61.55;101712.91;5032327;28;20132;-83
2023/05/21 07:38:33;;;;;;;10.18;7.60;;;;;;;20.09;62.92;101728.94;5032352;28;20029;-85
2023/05/21 07:41:01;;;;;;;10.13;7.70;;;;;;;19.99;63.31;101734.19;5032300;28;20033;-87
2023/05/21 07:48:43;;;;;;;10.23;7.65;;;;;;;19.09;63.60;101659.03;5086599;22;20399;-82
2023/05/21 07:51:09;;;;;;;10.60;8.35;;;;;;;18.42;65.46;101561.84;5072024;28;20033;-86
2023/05/21 07:53:35;;;;;;;10.10;8.50;;;;;;;18.81;64.49;101644.00;5054105;28;20048;-86
2023/05/21 07:56:00;;;;;;;11.80;8.23;;;;;;;19.28;64.86;101722.91;5072270;28;20025;-83
2023/05/21 07:58:43;;;;;;;9.95;7.97;;;;;;;18.65;64.82;101604.41;5054581;28;20397;-84
2023/05/21 08:01:11;;;;;;;9.98;7.78;;;;;;;19.09;67.21;101676.53;5072058;28;20028;-85
2023/05/21 08:03:39;;;;;;;12.68;8.25;;;;;;;18.88;65.41;101634.69;5072083;28;20589;-87
2023/05/21 08:06:23;;;;;;;12.05;8.35;;;;;;;18.73;65.53;101579.25;5072042;28;20032;-85
2023/05/21 08:08:57;;;;;;;11.40;7.93;;;;;;;19.07;64.81;101674.00;5071933;28;20079;-86
2023/05/21 08:11:26;;;;;;;10.50;8.80;;;;;;;18.76;66.16;101644.38;5073675;28;20078;-85
2023/05/21 08:14:07;;;;;;;10.82;8.98;;;;;;;18.47;64.76;101554.44;5057447;28;20040;-83
2023/05/21 08:16:35;;;;;;;10.38;8.45;;;;;;;19.41;65.05;101679.81;5135503;22;20070;-85
2023/05/21 08:19:01;;;;;;;11.00;8.77;;;;;;;19.57;65.08;101702.94;5095636;28;20533;-85
2023/05/21 08:22:17;;;;;;;11.30;8.55;;;;;;;19.93;64.72;101729.47;5096008;28;20024;-84
2023/05/21 08:24:54;;;;;;;12.43;8.70;;;;;;;19.04;63.74;101566.94;5092979;28;20093;-86
2023/05/21 08:27:32;;;;;;;11.07;8.52;;;;;;;19.71;64.19;101667.63;5095561;28;20162;-85
2023/05/21 08:30:13;;;;;;;13.18;8.82;;;;;;;19.88;63.98;101671.41;5077919;28;20252;-84
2023/05/21 08:33:11;;;;;;;11.45;9.15;;;;;;;20.12;63.69;101720.81;5077312;28;20025;-82
2023/05/21 08:35:59;;;;;;;11.63;8.32;;;;;;;20.10;63.97;101720.13;5095258;28;20107;-85
2023/05/21 08:38:38;;;;;;;12.35;8.48;;;;;;;19.45;64.98;101615.69;5095392;28;20028;-84
2023/05/21 08:41:26;;;;;;;11.90;8.25;;;;;;;20.13;64.25;101711.97;5094942;28;20032;-84
2023/05/21 08:44:11;;;;;;;12.25;8.88;;;;;;;19.65;63.85;101639.34;5075522;28;20032;-84
2023/05/21 08:49:25;;;;;;;12.82;9.20;;;;;;;18.92;65.04;101539.22;5093674;28;20097;-85
2023/05/21 08:52:06;;;;;;;11.13;8.38;;;;;;;18.89;64.80;101531.66;5076852;28;20090;-78
2023/05/21 08:54:38;;;;;;;10.85;8.63;;;;;;;19.91;64.75;101681.59;5094647;28;20052;-85
2023/05/21 08:57:18;;;;;;;10.63;8.77;;;;;;;19.38;64.95;101543.88;5076615;28;20028;-83
2023/05/21 09:00:03;;;;;;;10.90;9.18;;;;;;;20.44;64.71;101713.50;5120144;22;20056;-83
2023/05/21 09:05:25;;;;;;;12.48;8.80;;;;;;;19.38;63.26;101536.03;5080606;22;20051;-82
2023/05/21 09:08:11;;;;;;;10.50;8.35;;;;;;;20.00;64.54;101618.69;5094670;28;20027;-82
2023/05/21 09:10:50;;;;;;;10.68;8.55;;;;;;;19.94;64.88;101576.44;5094414;28;20081;-84
2023/05/21 09:13:19;;;;;;;10.70;8.38;;;;;;;20.43;64.10;101621.84;5076928;28;20452;-85
2023/05/21 09:15:50;;;;;;;13.65;9.23;;;;;;;19.91;62.15;101529.56;5116351;22;20044;-81
2023/05/21 09:18:15;;;;;;;10.98;7.95;;;;;;;20.92;62.66;101671.41;5076274;28;20479;-84
2023/05/21 09:20:41;;;;;;;12.25;8.60;;;;;;;20.59;65.13;101565.16;5094846;28;20028;-86
2023/05/21 09:23:15;;;;;;;10.85;8.65;;;;;;;20.22;60.72;101536.25;5094598;28;20046;-87
2023/05/21 09:25:41;;;;;;;12.73;8.00;;;;;;;21.05;62.47;101686.06;5058649;28;20121;-87
2023/05/21 09:28:22;;;;;;;13.43;10.10;;;;;;;20.17;61.66;101567.34;5075447;28;20048;-84
2023/05/21 09:31:05;;;;;;;14.77;10.27;;;;;;;20.82;62.71;101683.75;5077026;28;20039;-85
2023/05/21 09:33:56;;;;;;;12.52;9.90;;;;;;;20.82;61.40;101704.75;5092125;28;20024;-84
2023/05/21 09:36:37;;;;;;;11.87;9.33;;;;;;;20.52;62.46;101652.47;5093613;28;20058;-84
2023/05/21 09:39:03;;;;;;;11.32;8.80;;;;;;;20.13;62.64;101580.84;5093389;28;20081;-84
2023/05/21 09:44:35;;;;;;;10.75;8.60;;;;;;;20.63;62.18;101626.88;5092235;28;20609;-82
2023/05/21 09:47:08;;;;;;;13.30;9.32;;;;;;;20.60;63.07;101639.47;5092230;28;20524;-84
2023/05/21 09:50:11;;;;;;;13.10;9.52;;;;;;;19.88;61.94;101530.66;5076169;28;20494;-82
2023/05/21 09:52:55;;;;;;;12.23;9.90;;;;;;;19.86;63.48;101514.25;5094057;28;20024;-88
2023/05/21 09:55:27;;;;;;;11.80;9.70;;;;;;;20.43;65.44;101591.16;5094026;28;20028;-86
2023/05/21 09:57:52;;;;;;;12.60;9.52;;;;;;;20.33;62.38;101564.94;5093874;28;20035;-86
2023/05/21 10:00:38;;;;;;;12.57;9.45;;;;;;;20.95;63.14;101677.38;5093992;28;20028;-87
2023/05/21 10:03:22;;;;;;;11.93;9.23;;;;;;;20.42;63.20;101604.41;5093646;28;20025;-86
2023/05/21 10:06:10;;;;;;;18.52;11.27;;;;;;;20.56;62.33;101627.63;5093471;28;20024;-87
2023/05/21 10:08:54;;;;;;;12.93;9.77;;;;;;;20.46;63.72;101619.78;5094012;28;20463;-84
2023/05/21 10:11:23;;;;;;;15.05;10.15;;;;;;;20.22;64.35;101556.41;5093641;28;20085;-87
2023/05/21 10:13:59;;;;;;;14.27;10.57;;;;;;;20.95;62.47;101670.34;5093313;28;20544;-87
2023/05/21 10:16:35;;;;;;;13.40;10.07;;;;;;;19.96;62.46;101499.34;5093083;22;20059;-85
2023/05/21 10:19:09;;;;;;;12.73;10.27;;;;;;;20.43;64.78;101559.69;5073335;28;20036;-85
2023/05/21 10:21:35;;;;;;;14.27;10.35;;;;;;;21.04;62.72;101658.09;5067610;28;20048;-84
2023/05/21 10:24:12;;;;;;;13.07;9.73;;;;;;;20.76;63.56;101594.25;5073105;28;20478;-86
2023/05/21 10:26:38;;;;;;;12.07;9.68;;;;;;;21.31;62.39;101657.34;5072897;28;20098;-86
2023/05/21 10:29:07;;;;;;;13.25;10.13;;;;;;;21.23;61.69;101623.06;5072989;28;20013;-89
2023/05/21 10:31:37;;;;;;;13.68;10.70;;;;;;;21.51;61.65;101626.50;5073309;28;20060;-88
2023/05/21 10:34:10;;;;;;;13.48;9.98;;;;;;;20.81;61.02;101506.22;5072571;28;20541;-87
2023/05/21 10:36:53;;;;;;;13.15;10.13;;;;;;;21.46;61.92;101593.63;5073048;28;20027;-85
2023/05/21 10:39:37;;;;;;;11.77;9.35;;;;;;;21.02;62.43;101492.00;5072996;28;20028;-85
2023/05/21 10:42:34;;;;;;;13.32;11.65;;;;;;;21.54;60.42;101639.38;5054204;28;20036;-88
2023/05/21 10:45:36;;;;;;;12.68;10.07;;;;;;;21.45;63.16;101633.22;5072909;28;20043;-85
2023/05/21 10:48:30;;;;;;;14.02;11.68;;;;;;;21.47;62.89;101631.25;5072685;28;20426;-84
2023/05/21 10:51:34;;;;;;;15.63;11.93;;;;;;;21.11;62.92;101583.03;5071129;28;20044;-84
2023/05/21 10:54:37;;;;;;;15.70;12.38;;;;;;;21.46;61.41;101626.97;5072604;28;20040;-85
2023/05/21 10:57:20;;;;;;;13.90;11.65;;;;;;;21.63;61.93;101627.94;5072505;28;20033;-85
2023/05/21 10:59:46;;;;;;;14.65;11.15;;;;;;;21.68;64.41;101628.34;5072676;28;20029;-86
2023/05/21 11:02:36;;;;;;;13.77;12.30;;;;;;;21.68;61.56;101620.47;5072493;28;20052;-85
2023/05/21 11:05:06;;;;;;;14.10;11.05;;;;;;;20.81;63.94;101456.34;5072695;28;20033;-86
2023/05/21 11:08:09;;;;;;;15.73;12.73;;;;;;;21.77;62.46;101606.41;5072902;28;20063;-85
2023/05/21 11:10:40;;;;;;;15.98;13.07;;;;;;;21.25;61.71;101539.69;5072588;28;20036;-82
2023/05/21 11:13:11;;;;;;;16.02;13.40;;;;;;;21.64;61.50;101609.44;5072488;28;20476;-85
2023/05/21 11:16:01;;;;;;;;;;;;;;;21.84;62.08;101601.38;5072753;28;20480;-84
2023/05/21 11:18:32;;;;;;;16.90;13.20;;;;;;;21.88;60.30;101595.66;5072418;28;20272;-83
2023/05/21 11:21:10;;;;;;;15.77;11.95;;;;;;;21.99;60.12;101595.41;5072668;28;20155;-83
2023/05/21 11:23:58;;;;;;;16.50;12.90;;;;;;;21.77;60.74;101557.28;5070417;28;20036;-84
2023/05/21 11:26:57;;;;;;;18.27;13.50;;;;;;;21.97;61.00;101596.56;5073186;28;20059;-82
2023/05/21 11:29:33;;;;;;;15.43;12.88;;;;;;;21.88;60.46;101587.78;5071891;28;20025;-83
2023/05/21 11:32:19;;;;;;;15.23;13.00;;;;;;;21.64;59.39;101548.16;5054629;28;20029;-86
2023/05/21 11:34:46;;;;;;;17.50;13.98;;;;;;;22.00;63.22;101577.84;5072274;28;20043;-86
2023/05/21 11:37:25;;;;;;;16.83;13.55;;;;;;;22.00;61.10;101570.75;5072217;28;20484;-87
2023/05/21 11:39:55;;;;;;;14.90;13.35;;;;;;;21.79;60.30;101549.25;5054411;28;20040;-86
2023/05/21 11:42:29;;;;;;;17.80;13.77;;;;;;;22.11;61.38;101574.16;5072059;28;20093;-86
2023/05/21 11:44:58;;;;;;;18.10;15.55;;;;;;;22.10;59.05;101575.97;5071869;28;20078;-86
2023/05/21 11:47:25;;;;;;;16.60;14.82;;;;;;;22.17;61.59;101563.03;5068039;28;20028;-87
2023/05/21 11:49:54;;;;;;;21.35;15.25;;;;;;;22.27;61.69;101574.28;5076091;28;20036;-87
2023/05/21 11:52:19;;;;;;;19.67;15.48;;;;;;;21.93;59.41;101519.78;5076167;28;20107;-86
2023/05/21 11:54:52;;;;;;;16.75;13.85;;;;;;;22.48;61.57;101564.22;5075952;28;20154;-88